Terminal Aerodrome Forecast
Issued by NWS

Home | Current Version | Previous Version | Text Only | Print | Product List | Glossary On
Versions: 1 2 3 4 5 6 7 8 9 10 11 12 13 14 15 16 17 18 19 20 21
000
FTAK31 PAJN 230500
TAFAWG
TAF
PAWG 230523Z 2306/2406 12005KT P6SM -SHRA BKN050 BKN080
     FM230800 10003KT P6SM SCT050 BKN100
     FM231200 VRB03KT P6SM SCT120
     FM231900 32007KT P6SM SCT100
     FM240100 VRB04KT P6SM BKN090 OVC120
      AMD LTD TO CLD VIS AND WIND 2306/2315=

USA.gov is the U.S. government's official web portal to all federal, state and local government web resources and services.